^^
Station Historical Data
Daily Summary for January 22, 2018 Units:  Both    English   Metric
« Previous Day
Next Day »
Daily Weekly Monthly Yearly Custom
  High: Low: Average:
Temperature: TemperatureF °F /  -17.8 °C 59.4 °F /  15.2 °C 74.7 °F /  23.7 °C
Dew Point: DewpointF °F /  -17.8 °C 32.4 °F /  0.2 °C 41.9 °F /  5.5 °C
Humidity: Humidity% 17% 35%
Wind Speed: WindSpeedMPHmph /  0km/h - 2mph /  3.2km/h
Wind Gust: WindSpeedGustMPHmph /  0km/h - -
Wind- - WSW
Pressure: PressureIn in /  0 hPa 29.59 in /  1001.9 hPa -
Precipitation: 0.00 in /  0 mm    
Historical Graphs
 
 
Tabular Data for January 22, 2018
Time Temperature Dew Point Pressure Wind Wind Speed Wind Gust Humidity Rainfall Rate (Hourly) solar Conditions
TemperatureF °F /  -17.8 °C DewpointF °F /  -17.8 °C PressureInin /  0hPa Calm     Humidity% HourlyPrecipInin /  0mm SolarRadiationWatts/m^2 W/m2 Conditions
00:00 67.3 °F /  19.6 °C 46.4 °F /  8 °C 29.73in /  1006.7hPa Calm     47% 0.00in /  0mm 0.0 W/m2
00:05 67.5 °F /  19.7 °C 47.1 °F /  8.4 °C 29.73in /  1006.7hPa Calm     48% 0.00in /  0mm 0.0 W/m2
00:10 67.5 °F /  19.7 °C 47.1 °F /  8.4 °C 29.73in /  1006.7hPa Calm     48% 0.00in /  0mm 0.0 W/m2
00:15 67.5 °F /  19.7 °C 47.1 °F /  8.4 °C 29.73in /  1006.7hPa Calm     48% 0.00in /  0mm 0.0 W/m2
00:20 67.5 °F /  19.7 °C 46.6 °F /  8.1 °C 29.73in /  1006.7hPa Calm     47% 0.00in /  0mm 0.0 W/m2
00:25 67.5 °F /  19.7 °C 46.6 °F /  8.1 °C 29.73in /  1006.7hPa Calm     47% 0.00in /  0mm 0.0 W/m2
00:30 67.6 °F /  19.8 °C 46.8 °F /  8.2 °C 29.73in /  1006.7hPa WSW 0.9mph /  1.4km/h 2.0mph /  3.2km/h 47% 0.00in /  0mm 0.0 W/m2
00:35 67.6 °F /  19.8 °C 47.3 °F /  8.5 °C 29.73in /  1006.7hPa Calm   1.0mph /  1.6km/h 48% 0.00in /  0mm 0.0 W/m2
00:40 67.6 °F /  19.8 °C 47.3 °F /  8.5 °C 29.73in /  1006.7hPa Calm   2.0mph /  3.2km/h 48% 0.00in /  0mm 0.0 W/m2
00:56 67.6 °F /  19.8 °C 48.4 °F /  9.1 °C 29.73in /  1006.7hPa Calm   4.0mph /  6.4km/h 50% 0.00in /  0mm 0.0 W/m2
01:01 67.6 °F /  19.8 °C 48.4 °F /  9.1 °C 29.73in /  1006.7hPa NNE 0.9mph /  1.4km/h 2.0mph /  3.2km/h 50% 0.00in /  0mm 0.0 W/m2
01:11 67.5 °F /  19.7 °C 48.2 °F /  9 °C 29.72in /  1006.3hPa NNE 2.9mph /  4.7km/h 3.0mph /  4.8km/h 50% 0.00in /  0mm 0.0 W/m2
01:16 67.5 °F /  19.7 °C 47.7 °F /  8.7 °C 29.72in /  1006.3hPa North 0.9mph /  1.4km/h 3.0mph /  4.8km/h 49% 0.00in /  0mm 0.0 W/m2
01:21 67.5 °F /  19.7 °C 48.2 °F /  9 °C 29.72in /  1006.3hPa Calm   1.0mph /  1.6km/h 50% 0.00in /  0mm 0.0 W/m2
01:26 67.5 °F /  19.7 °C 48.2 °F /  9 °C 29.72in /  1006.3hPa Calm     50% 0.00in /  0mm 0.0 W/m2
01:31 67.3 °F /  19.6 °C 48.0 °F /  8.9 °C 29.72in /  1006.3hPa Calm     50% 0.00in /  0mm 0.0 W/m2
01:36 67.3 °F /  19.6 °C 48.6 °F /  9.2 °C 29.72in /  1006.3hPa Calm     51% 0.00in /  0mm 0.0 W/m2
01:42 67.1 °F /  19.5 °C 48.4 °F /  9.1 °C 29.72in /  1006.3hPa Calm     51% 0.00in /  0mm 0.0 W/m2
01:47 66.9 °F /  19.4 °C 48.2 °F /  9 °C 29.71in /  1006hPa Calm   2.0mph /  3.2km/h 51% 0.00in /  0mm 0.0 W/m2
01:52 66.7 °F /  19.3 °C 48.6 °F /  9.2 °C 29.72in /  1006.3hPa Calm   1.0mph /  1.6km/h 52% 0.00in /  0mm 0.0 W/m2
01:57 66.7 °F /  19.3 °C 49.1 °F /  9.5 °C 29.71in /  1006hPa Calm     53% 0.00in /  0mm 0.0 W/m2
02:02 66.6 °F /  19.2 °C 48.9 °F /  9.4 °C 29.71in /  1006hPa Calm     53% 0.00in /  0mm 0.0 W/m2
02:07 66.4 °F /  19.1 °C 49.3 °F /  9.6 °C 29.71in /  1006hPa Calm   1.0mph /  1.6km/h 54% 0.00in /  0mm 0.0 W/m2
02:12 66.4 °F /  19.1 °C 49.6 °F /  9.8 °C 29.71in /  1006hPa Calm     55% 0.00in /  0mm 0.0 W/m2
02:17 66.4 °F /  19.1 °C 49.3 °F /  9.6 °C 29.71in /  1006hPa Calm     54% 0.00in /  0mm 0.0 W/m2
02:23 66.2 °F /  19 °C 49.1 °F /  9.5 °C 29.71in /  1006hPa SE 0.9mph /  1.4km/h 1.0mph /  1.6km/h 54% 0.00in /  0mm 0.0 W/m2
02:28 66.4 °F /  19.1 °C 49.6 °F /  9.8 °C 29.71in /  1006hPa Calm     55% 0.00in /  0mm 0.0 W/m2
02:33 66.4 °F /  19.1 °C 50.7 °F /  10.4 °C 29.71in /  1006hPa Calm     57% 0.00in /  0mm 0.0 W/m2
02:38 66.4 °F /  19.1 °C 50.7 °F /  10.4 °C 29.71in /  1006hPa Calm     57% 0.00in /  0mm 0.0 W/m2
02:43 66.2 °F /  19 °C 50.9 °F /  10.5 °C 29.71in /  1006hPa Calm     58% 0.00in /  0mm 0.0 W/m2
02:48 66.2 °F /  19 °C 50.9 °F /  10.5 °C 29.71in /  1006hPa Calm     58% 0.00in /  0mm 0.0 W/m2
02:53 66.2 °F /  19 °C 50.9 °F /  10.5 °C 29.71in /  1006hPa Calm     58% 0.00in /  0mm 0.0 W/m2
02:58 66.2 °F /  19 °C 50.9 °F /  10.5 °C 29.71in /  1006hPa Calm     58% 0.00in /  0mm 0.0 W/m2
03:03 66.0 °F /  18.9 °C 51.3 °F /  10.7 °C 29.71in /  1006hPa Calm     59% 0.00in /  0mm 0.0 W/m2
03:08 66.0 °F /  18.9 °C 51.8 °F /  11 °C 29.71in /  1006hPa Calm   1.0mph /  1.6km/h 60% 0.00in /  0mm 0.0 W/m2
03:14 66.0 °F /  18.9 °C 52.2 °F /  11.2 °C 29.71in /  1006hPa Calm   1.0mph /  1.6km/h 61% 0.00in /  0mm 0.0 W/m2
03:19 66.0 °F /  18.9 °C 52.7 °F /  11.5 °C 29.71in /  1006hPa Calm     62% 0.00in /  0mm 0.0 W/m2
03:24 65.8 °F /  18.8 °C 52.5 °F /  11.4 °C 29.70in /  1005.6hPa Calm     62% 0.00in /  0mm 0.0 W/m2
03:29 65.8 °F /  18.8 °C 52.5 °F /  11.4 °C 29.70in /  1005.6hPa Calm     62% 0.00in /  0mm 0.0 W/m2
03:34 65.7 °F /  18.7 °C 52.3 °F /  11.3 °C 29.70in /  1005.6hPa Calm     62% 0.00in /  0mm 0.0 W/m2
03:39 65.5 °F /  18.6 °C 52.2 °F /  11.2 °C 29.70in /  1005.6hPa Calm     62% 0.00in /  0mm 0.0 W/m2
03:44 65.5 °F /  18.6 °C 52.2 °F /  11.2 °C 29.71in /  1006hPa Calm     62% 0.00in /  0mm 0.0 W/m2
03:49 65.1 °F /  18.4 °C 52.2 °F /  11.2 °C 29.70in /  1005.6hPa Calm     63% 0.00in /  0mm 0.0 W/m2
03:55 64.9 °F /  18.3 °C 52.0 °F /  11.1 °C 29.70in /  1005.6hPa Calm     63% 0.00in /  0mm 0.0 W/m2
04:00 64.8 °F /  18.2 °C 51.8 °F /  11 °C 29.70in /  1005.6hPa Calm     63% 0.00in /  0mm 0.0 W/m2
04:05 64.6 °F /  18.1 °C 51.6 °F /  10.9 °C 29.70in /  1005.6hPa Calm     63% 0.00in /  0mm 0.0 W/m2
04:10 64.2 °F /  17.9 °C 51.4 °F /  10.8 °C 29.70in /  1005.6hPa Calm     63% 0.00in /  0mm 0.0 W/m2
04:15 64.0 °F /  17.8 °C 51.3 °F /  10.7 °C 29.70in /  1005.6hPa Calm     63% 0.00in /  0mm 0.0 W/m2
04:20 63.9 °F /  17.7 °C 51.1 °F /  10.6 °C 29.70in /  1005.6hPa Calm     63% 0.00in /  0mm 0.0 W/m2
04:25 63.7 °F /  17.6 °C 50.9 °F /  10.5 °C 29.70in /  1005.6hPa Calm     63% 0.00in /  0mm 0.0 W/m2
04:30 63.3 °F /  17.4 °C 49.6 °F /  9.8 °C 29.70in /  1005.6hPa Calm     61% 0.00in /  0mm 0.0 W/m2
04:40 63.0 °F /  17.2 °C 49.8 °F /  9.9 °C 29.70in /  1005.6hPa Calm     62% 0.00in /  0mm 0.0 W/m2
04:45 62.8 °F /  17.1 °C 47.8 °F /  8.8 °C 29.70in /  1005.6hPa Calm     58% 0.00in /  0mm 0.0 W/m2
04:51 62.4 °F /  16.9 °C 47.8 °F /  8.8 °C 29.70in /  1005.6hPa Calm   1.0mph /  1.6km/h 59% 0.00in /  0mm 0.0 W/m2
04:56 62.1 °F /  16.7 °C 47.5 °F /  8.6 °C 29.70in /  1005.6hPa Calm     59% 0.00in /  0mm 0.0 W/m2
05:06 61.7 °F /  16.5 °C 48.2 °F /  9 °C 29.70in /  1005.6hPa Calm     61% 0.00in /  0mm 0.0 W/m2
05:11 61.5 °F /  16.4 °C 48.4 °F /  9.1 °C 29.70in /  1005.6hPa Calm     62% 0.00in /  0mm 0.0 W/m2
05:16 61.3 °F /  16.3 °C 48.2 °F /  9 °C 29.70in /  1005.6hPa Calm     62% 0.00in /  0mm 0.0 W/m2
05:21 61.2 °F /  16.2 °C 48.4 °F /  9.1 °C 29.70in /  1005.6hPa Calm     63% 0.00in /  0mm 0.0 W/m2
05:26 61.0 °F /  16.1 °C 48.4 °F /  9.1 °C 29.71in /  1006hPa Calm     63% 0.00in /  0mm 0.0 W/m2
05:31 61.0 °F /  16.1 °C 48.4 °F /  9.1 °C 29.71in /  1006hPa Calm   1.0mph /  1.6km/h 63% 0.00in /  0mm 0.0 W/m2
05:37 60.6 °F /  15.9 °C 48.4 °F /  9.1 °C 29.71in /  1006hPa Calm     64% 0.00in /  0mm 0.0 W/m2
05:42 60.6 °F /  15.9 °C 48.7 °F /  9.3 °C 29.71in /  1006hPa Calm     65% 0.00in /  0mm 0.0 W/m2
05:47 60.4 °F /  15.8 °C 49.1 °F /  9.5 °C 29.71in /  1006hPa Calm     66% 0.00in /  0mm 0.0 W/m2
05:52 60.3 °F /  15.7 °C 48.9 °F /  9.4 °C 29.71in /  1006hPa Calm     66% 0.00in /  0mm 0.0 W/m2
05:57 60.3 °F /  15.7 °C 48.9 °F /  9.4 °C 29.71in /  1006hPa Calm   1.0mph /  1.6km/h 66% 0.00in /  0mm 0.0 W/m2
06:07 60.1 °F /  15.6 °C 48.2 °F /  9 °C 29.72in /  1006.3hPa Calm   1.0mph /  1.6km/h 65% 0.00in /  0mm 0.0 W/m2
06:12 59.9 °F /  15.5 °C 48.6 °F /  9.2 °C 29.72in /  1006.3hPa Calm   1.0mph /  1.6km/h 66% 0.00in /  0mm 0.0 W/m2
06:23 59.5 °F /  15.3 °C 48.2 °F /  9 °C 29.72in /  1006.3hPa SSE 0.9mph /  1.4km/h 1.0mph /  1.6km/h 66% 0.00in /  0mm 0.0 W/m2
06:28 59.5 °F /  15.3 °C 48.2 °F /  9 °C 29.72in /  1006.3hPa Calm   1.0mph /  1.6km/h 66% 0.00in /  0mm 0.0 W/m2
06:38 59.4 °F /  15.2 °C 48.0 °F /  8.9 °C 29.72in /  1006.3hPa Calm   1.0mph /  1.6km/h 66% 0.00in /  0mm 9.0 W/m2
06:48 59.4 °F /  15.2 °C 47.7 °F /  8.7 °C 29.72in /  1006.3hPa Calm     65% 0.00in /  0mm 16.0 W/m2
06:53 59.4 °F /  15.2 °C 47.7 °F /  8.7 °C 29.72in /  1006.3hPa Calm     65% 0.00in /  0mm 21.0 W/m2
06:58 59.5 °F /  15.3 °C 47.8 °F /  8.8 °C 29.72in /  1006.3hPa Calm     65% 0.00in /  0mm 28.0 W/m2
07:03 59.5 °F /  15.3 °C 48.2 °F /  9 °C 29.72in /  1006.3hPa Calm     66% 0.00in /  0mm 33.0 W/m2
07:14 59.7 °F /  15.4 °C 48.0 °F /  8.9 °C 29.73in /  1006.7hPa East 2.0mph /  3.2km/h 3.0mph /  4.8km/h 65% 0.00in /  0mm 39.0 W/m2
07:19 60.1 °F /  15.6 °C 48.2 °F /  9 °C 29.73in /  1006.7hPa East 4.0mph /  6.4km/h 4.0mph /  6.4km/h 65% 0.00in /  0mm 37.0 W/m2
07:24 60.4 °F /  15.8 °C 49.1 °F /  9.5 °C 29.73in /  1006.7hPa Calm   1.0mph /  1.6km/h 66% 0.00in /  0mm 37.0 W/m2
07:34 61.0 °F /  16.1 °C 49.5 °F /  9.7 °C 29.73in /  1006.7hPa Calm   1.0mph /  1.6km/h 66% 0.00in /  0mm 44.0 W/m2
07:39 61.2 °F /  16.2 °C 49.6 °F /  9.8 °C 29.73in /  1006.7hPa NE 2.0mph /  3.2km/h 4.0mph /  6.4km/h 66% 0.00in /  0mm 51.0 W/m2
07:49 62.4 °F /  16.9 °C 50.0 °F /  10 °C 29.73in /  1006.7hPa NE 2.0mph /  3.2km/h 4.0mph /  6.4km/h 64% 0.00in /  0mm 148.0 W/m2
07:54 63.3 °F /  17.4 °C 50.0 °F /  10 °C 29.73in /  1006.7hPa Calm   4.0mph /  6.4km/h 62% 0.00in /  0mm 202.0 W/m2
08:00 64.0 °F /  17.8 °C 50.4 °F /  10.2 °C 29.73in /  1006.7hPa NE 0.9mph /  1.4km/h 2.0mph /  3.2km/h 61% 0.00in /  0mm 220.0 W/m2
08:05 64.8 °F /  18.2 °C 50.5 °F /  10.3 °C 29.73in /  1006.7hPa Calm   2.0mph /  3.2km/h 60% 0.00in /  0mm 302.0 W/m2
08:10 65.7 °F /  18.7 °C 51.4 °F /  10.8 °C 29.73in /  1006.7hPa East 2.0mph /  3.2km/h 3.0mph /  4.8km/h 60% 0.00in /  0mm 394.0 W/m2
08:15 66.7 °F /  19.3 °C 51.4 °F /  10.8 °C 29.73in /  1006.7hPa NNW 0.9mph /  1.4km/h 1.0mph /  1.6km/h 58% 0.00in /  0mm 348.0 W/m2
08:20 68.4 °F /  20.2 °C 52.5 °F /  11.4 °C 29.73in /  1006.7hPa NNW 2.0mph /  3.2km/h 3.0mph /  4.8km/h 57% 0.00in /  0mm 376.0 W/m2
08:25 69.6 °F /  20.9 °C 53.2 °F /  11.8 °C 29.73in /  1006.7hPa NNW 0.9mph /  1.4km/h 2.0mph /  3.2km/h 56% 0.00in /  0mm 422.0 W/m2
08:35 71.8 °F /  22.1 °C 52.2 °F /  11.2 °C 29.73in /  1006.7hPa NNW 0.9mph /  1.4km/h 3.0mph /  4.8km/h 50% 0.00in /  0mm 455.0 W/m2
08:40 72.5 °F /  22.5 °C 50.5 °F /  10.3 °C 29.73in /  1006.7hPa Calm   1.0mph /  1.6km/h 46% 0.00in /  0mm 450.0 W/m2
08:45 73.2 °F /  22.9 °C 43.9 °F /  6.6 °C 29.73in /  1006.7hPa Calm   2.0mph /  3.2km/h 35% 0.00in /  0mm 448.0 W/m2
08:56 74.5 °F /  23.6 °C 41.0 °F /  5 °C 29.73in /  1006.7hPa SW 0.9mph /  1.4km/h 1.0mph /  1.6km/h 30% 0.00in /  0mm 445.0 W/m2
09:01 74.8 °F /  23.8 °C 41.4 °F /  5.2 °C 29.73in /  1006.7hPa NNW 2.9mph /  4.7km/h 4.0mph /  6.4km/h 30% 0.00in /  0mm 415.0 W/m2
09:07 75.6 °F /  24.2 °C 41.0 °F /  5 °C 29.73in /  1006.7hPa Calm   4.0mph /  6.4km/h 29% 0.00in /  0mm 540.0 W/m2
09:12 76.1 °F /  24.5 °C 36.7 °F /  2.6 °C 29.73in /  1006.7hPa NNE 2.9mph /  4.7km/h 4.0mph /  6.4km/h 24% 0.00in /  0mm 543.0 W/m2
09:17 76.6 °F /  24.8 °C 37.2 °F /  2.9 °C 29.73in /  1006.7hPa Calm   3.0mph /  4.8km/h 24% 0.00in /  0mm 490.0 W/m2
09:22 76.6 °F /  24.8 °C 39.2 °F /  4 °C 29.73in /  1006.7hPa Calm   2.0mph /  3.2km/h 26% 0.00in /  0mm 619.0 W/m2
09:27 76.6 °F /  24.8 °C 40.1 °F /  4.5 °C 29.73in /  1006.7hPa NNW 0.9mph /  1.4km/h 2.0mph /  3.2km/h 27% 0.00in /  0mm 640.0 W/m2
09:37 76.8 °F /  24.9 °C 38.3 °F /  3.5 °C 29.73in /  1006.7hPa Calm   1.0mph /  1.6km/h 25% 0.00in /  0mm 647.0 W/m2
09:42 76.8 °F /  24.9 °C 38.3 °F /  3.5 °C 29.73in /  1006.7hPa West 0.9mph /  1.4km/h 6.0mph /  9.7km/h 25% 0.00in /  0mm 677.0 W/m2
09:47 76.8 °F /  24.9 °C 38.3 °F /  3.5 °C 29.73in /  1006.7hPa SW 0.9mph /  1.4km/h 2.0mph /  3.2km/h 25% 0.00in /  0mm 670.0 W/m2
09:53 77.2 °F /  25.1 °C 38.7 °F /  3.7 °C 29.73in /  1006.7hPa North 2.0mph /  3.2km/h 4.0mph /  6.4km/h 25% 0.00in /  0mm 761.0 W/m2
09:59 77.5 °F /  25.3 °C 37.9 °F /  3.3 °C 29.73in /  1006.7hPa WNW 4.0mph /  6.4km/h 4.0mph /  6.4km/h 24% 0.00in /  0mm 766.0 W/m2
10:04 78.3 °F /  25.7 °C 37.4 °F /  3 °C 29.73in /  1006.7hPa Calm   1.0mph /  1.6km/h 23% 0.00in /  0mm 752.0 W/m2
10:14 79.3 °F /  26.3 °C 37.2 °F /  2.9 °C 29.73in /  1006.7hPa WNW 0.9mph /  1.4km/h 6.0mph /  9.7km/h 22% 0.00in /  0mm 814.0 W/m2
10:19 80.1 °F /  26.7 °C 37.8 °F /  3.2 °C 29.73in /  1006.7hPa Calm   4.0mph /  6.4km/h 22% 0.00in /  0mm 835.0 W/m2
10:24 80.4 °F /  26.9 °C 38.1 °F /  3.4 °C 29.73in /  1006.7hPa NNW 4.0mph /  6.4km/h 5.0mph /  8km/h 22% 0.00in /  0mm 842.0 W/m2
10:34 81.0 °F /  27.2 °C 38.5 °F /  3.6 °C 29.73in /  1006.7hPa NE 2.9mph /  4.7km/h 9.0mph /  14.5km/h 22% 0.00in /  0mm 872.0 W/m2
10:39 81.3 °F /  27.4 °C 37.6 °F /  3.1 °C 29.73in /  1006.7hPa WNW 2.0mph /  3.2km/h 3.0mph /  4.8km/h 21% 0.00in /  0mm 884.0 W/m2
10:45 81.5 °F /  27.5 °C 39.0 °F /  3.9 °C 29.73in /  1006.7hPa West 2.9mph /  4.7km/h 5.0mph /  8km/h 22% 0.00in /  0mm 900.0 W/m2
10:50 81.7 °F /  27.6 °C 39.2 °F /  4 °C 29.73in /  1006.7hPa NNW 0.9mph /  1.4km/h 5.0mph /  8km/h 22% 0.00in /  0mm 912.0 W/m2
10:56 82.0 °F /  27.8 °C 40.6 °F /  4.8 °C 29.73in /  1006.7hPa Calm   4.0mph /  6.4km/h 23% 0.00in /  0mm 926.0 W/m2
11:01 82.8 °F /  28.2 °C 38.8 °F /  3.8 °C 29.72in /  1006.3hPa Calm   3.0mph /  4.8km/h 21% 0.00in /  0mm 932.0 W/m2
11:06 83.1 °F /  28.4 °C 37.9 °F /  3.3 °C 29.72in /  1006.3hPa NNW 6.0mph /  9.7km/h 7.0mph /  11.3km/h 20% 0.00in /  0mm 947.0 W/m2
11:11 83.3 °F /  28.5 °C 38.1 °F /  3.4 °C 29.73in /  1006.7hPa North 4.0mph /  6.4km/h 5.0mph /  8km/h 20% 0.00in /  0mm 939.0 W/m2
11:16 83.3 °F /  28.5 °C 38.1 °F /  3.4 °C 29.72in /  1006.3hPa Calm   6.0mph /  9.7km/h 20% 0.00in /  0mm 935.0 W/m2
11:21 83.1 °F /  28.4 °C 36.7 °F /  2.6 °C 29.72in /  1006.3hPa Calm   5.0mph /  8km/h 19% 0.00in /  0mm 976.0 W/m2
11:26 83.1 °F /  28.4 °C 36.7 °F /  2.6 °C 29.72in /  1006.3hPa Calm   1.0mph /  1.6km/h 19% 0.00in /  0mm 997.0 W/m2
11:32 83.5 °F /  28.6 °C 35.6 °F /  2 °C 29.72in /  1006.3hPa NW 2.0mph /  3.2km/h 5.0mph /  8km/h 18% 0.00in /  0mm 991.0 W/m2
11:37 84.0 °F /  28.9 °C 37.4 °F /  3 °C 29.72in /  1006.3hPa Calm   5.0mph /  8km/h 19% 0.00in /  0mm 1000.0 W/m2
11:42 84.6 °F /  29.2 °C 34.9 °F /  1.6 °C 29.72in /  1006.3hPa WNW 0.9mph /  1.4km/h 8.0mph /  12.9km/h 17% 0.00in /  0mm 1023.0 W/m2
11:52 84.9 °F /  29.4 °C 36.7 °F /  2.6 °C 29.72in /  1006.3hPa WNW 2.9mph /  4.7km/h 7.0mph /  11.3km/h 18% 0.00in /  0mm 1034.0 W/m2
11:57 85.5 °F /  29.7 °C 37.0 °F /  2.8 °C 29.72in /  1006.3hPa WSW 4.0mph /  6.4km/h 5.0mph /  8km/h 18% 0.00in /  0mm 1034.0 W/m2
12:02 85.1 °F /  29.5 °C 36.9 °F /  2.7 °C 29.71in /  1006hPa South 2.0mph /  3.2km/h 7.0mph /  11.3km/h 18% 0.00in /  0mm 1023.0 W/m2
12:07 84.9 °F /  29.4 °C 38.1 °F /  3.4 °C 29.72in /  1006.3hPa WNW 0.9mph /  1.4km/h 11.0mph /  17.7km/h 19% 0.00in /  0mm 1032.0 W/m2
12:12 85.5 °F /  29.7 °C 37.0 °F /  2.8 °C 29.71in /  1006hPa Calm   5.0mph /  8km/h 18% 0.00in /  0mm 1046.0 W/m2
12:17 85.6 °F /  29.8 °C 37.2 °F /  2.9 °C 29.71in /  1006hPa SW 0.9mph /  1.4km/h 6.0mph /  9.7km/h 18% 0.00in /  0mm 1055.0 W/m2
12:22 85.6 °F /  29.8 °C 37.2 °F /  2.9 °C 29.71in /  1006hPa NNW 0.9mph /  1.4km/h 3.0mph /  4.8km/h 18% 0.00in /  0mm 1056.0 W/m2
12:28 86.2 °F /  30.1 °C 37.8 °F /  3.2 °C 29.71in /  1006hPa WNW 2.9mph /  4.7km/h 7.0mph /  11.3km/h 18% 0.00in /  0mm 1065.0 W/m2
12:33 85.8 °F /  29.9 °C 37.4 °F /  3 °C 29.71in /  1006hPa Calm   7.0mph /  11.3km/h 18% 0.00in /  0mm 1065.0 W/m2
12:43 86.2 °F /  30.1 °C 37.8 °F /  3.2 °C 29.70in /  1005.6hPa North 4.9mph /  7.9km/h 5.0mph /  8km/h 18% 0.00in /  0mm 1069.0 W/m2
12:53 86.9 °F /  30.5 °C 38.3 °F /  3.5 °C 29.70in /  1005.6hPa NNW 2.9mph /  4.7km/h 3.0mph /  4.8km/h 18% 0.00in /  0mm 1067.0 W/m2
12:58 86.9 °F /  30.5 °C 38.3 °F /  3.5 °C 29.69in /  1005.3hPa NNE 2.0mph /  3.2km/h 7.0mph /  11.3km/h 18% 0.00in /  0mm 1065.0 W/m2
13:03 87.4 °F /  30.8 °C 38.7 °F /  3.7 °C 29.70in /  1005.6hPa WNW 8.9mph /  14.3km/h 10.0mph /  16.1km/h 18% 0.00in /  0mm 1063.0 W/m2
13:08 88.0 °F /  31.1 °C 39.2 °F /  4 °C 29.69in /  1005.3hPa WNW 0.9mph /  1.4km/h 7.0mph /  11.3km/h 18% 0.00in /  0mm 1063.0 W/m2
13:14 88.3 °F /  31.3 °C 40.8 °F /  4.9 °C 29.69in /  1005.3hPa Calm   9.0mph /  14.5km/h 19% 0.00in /  0mm 1056.0 W/m2
13:19 88.2 °F /  31.2 °C 40.6 °F /  4.8 °C 29.69in /  1005.3hPa SSW 2.0mph /  3.2km/h 4.0mph /  6.4km/h 19% 0.00in /  0mm 1056.0 W/m2
13:24 88.3 °F /  31.3 °C 42.3 °F /  5.7 °C 29.68in /  1005hPa Calm   7.0mph /  11.3km/h 20% 0.00in /  0mm 1058.0 W/m2
13:29 88.9 °F /  31.6 °C 41.4 °F /  5.2 °C 29.68in /  1005hPa NE 0.9mph /  1.4km/h 2.0mph /  3.2km/h 19% 0.00in /  0mm 1056.0 W/m2
13:34 89.2 °F /  31.8 °C 41.5 °F /  5.3 °C 29.68in /  1005hPa Calm   3.0mph /  4.8km/h 19% 0.00in /  0mm 1055.0 W/m2
13:45 88.5 °F /  31.4 °C 41.0 °F /  5 °C 29.68in /  1005hPa WNW 2.0mph /  3.2km/h 4.0mph /  6.4km/h 19% 0.00in /  0mm 1035.0 W/m2
13:50 88.2 °F /  31.2 °C 39.4 °F /  4.1 °C 29.67in /  1004.6hPa North 2.9mph /  4.7km/h 8.0mph /  12.9km/h 18% 0.00in /  0mm 1037.0 W/m2
13:55 88.5 °F /  31.4 °C 41.0 °F /  5 °C 29.67in /  1004.6hPa Calm   9.0mph /  14.5km/h 19% 0.00in /  0mm 1028.0 W/m2
14:00 89.2 °F /  31.8 °C 41.5 °F /  5.3 °C 29.67in /  1004.6hPa NNE 2.9mph /  4.7km/h 5.0mph /  8km/h 19% 0.00in /  0mm 1021.0 W/m2
14:05 89.6 °F /  32 °C 40.5 °F /  4.7 °C 29.67in /  1004.6hPa NNW 2.9mph /  4.7km/h 9.0mph /  14.5km/h 18% 0.00in /  0mm 1025.0 W/m2
14:15 90.0 °F /  32.2 °C 40.8 °F /  4.9 °C 29.66in /  1004.3hPa WNW 0.9mph /  1.4km/h 7.0mph /  11.3km/h 18% 0.00in /  0mm 997.0 W/m2
14:20 90.0 °F /  32.2 °C 40.8 °F /  4.9 °C 29.66in /  1004.3hPa NNW 2.9mph /  4.7km/h 8.0mph /  12.9km/h 18% 0.00in /  0mm 993.0 W/m2
14:30 90.3 °F /  32.4 °C 41.0 °F /  5 °C 29.66in /  1004.3hPa West 6.0mph /  9.7km/h 7.0mph /  11.3km/h 18% 0.00in /  0mm 1027.0 W/m2
14:41 89.6 °F /  32 °C 40.5 °F /  4.7 °C 29.65in /  1003.9hPa WNW 6.9mph /  11.1km/h 11.0mph /  17.7km/h 18% 0.00in /  0mm 1051.0 W/m2
14:52 88.9 °F /  31.6 °C 41.4 °F /  5.2 °C 29.65in /  1003.9hPa NNW 4.0mph /  6.4km/h 8.0mph /  12.9km/h 19% 0.00in /  0mm 969.0 W/m2
15:02 90.0 °F /  32.2 °C 40.8 °F /  4.9 °C 29.65in /  1003.9hPa WNW 2.0mph /  3.2km/h 12.0mph /  19.3km/h 18% 0.00in /  0mm 940.0 W/m2
15:07 89.8 °F /  32.1 °C 42.1 °F /  5.6 °C 29.65in /  1003.9hPa NW 4.0mph /  6.4km/h 8.0mph /  12.9km/h 19% 0.00in /  0mm 921.0 W/m2
15:12 90.0 °F /  32.2 °C 40.8 °F /  4.9 °C 29.65in /  1003.9hPa WNW 8.1mph /  13km/h 9.0mph /  14.5km/h 18% 0.00in /  0mm 907.0 W/m2
15:17 89.8 °F /  32.1 °C 42.1 °F /  5.6 °C 29.64in /  1003.6hPa West 2.0mph /  3.2km/h 15.0mph /  24.1km/h 19% 0.00in /  0mm 893.0 W/m2
15:22 90.1 °F /  32.3 °C 41.0 °F /  5 °C 29.64in /  1003.6hPa NNW 2.0mph /  3.2km/h 8.0mph /  12.9km/h 18% 0.00in /  0mm 886.0 W/m2
15:33 90.9 °F /  32.7 °C 41.5 °F /  5.3 °C 29.63in /  1003.3hPa North 2.0mph /  3.2km/h 8.0mph /  12.9km/h 18% 0.00in /  0mm 856.0 W/m2
15:43 90.3 °F /  32.4 °C 41.0 °F /  5 °C 29.62in /  1002.9hPa NNW 2.0mph /  3.2km/h 5.0mph /  8km/h 18% 0.00in /  0mm 826.0 W/m2
15:48 90.3 °F /  32.4 °C 42.4 °F /  5.8 °C 29.62in /  1002.9hPa WSW 2.0mph /  3.2km/h 12.0mph /  19.3km/h 19% 0.00in /  0mm 816.0 W/m2
15:53 90.9 °F /  32.7 °C 43.0 °F /  6.1 °C 29.62in /  1002.9hPa WNW 2.0mph /  3.2km/h 9.0mph /  14.5km/h 19% 0.00in /  0mm 800.0 W/m2
15:58 91.0 °F /  32.8 °C 43.0 °F /  6.1 °C 29.62in /  1002.9hPa WSW 2.9mph /  4.7km/h 6.0mph /  9.7km/h 19% 0.00in /  0mm 779.0 W/m2
16:03 91.2 °F /  32.9 °C 43.2 °F /  6.2 °C 29.62in /  1002.9hPa West 0.9mph /  1.4km/h 11.0mph /  17.7km/h 19% 0.00in /  0mm 765.0 W/m2
16:14 90.3 °F /  32.4 °C 42.4 °F /  5.8 °C 29.61in /  1002.6hPa SW 2.9mph /  4.7km/h 5.0mph /  8km/h 19% 0.00in /  0mm 758.0 W/m2
16:19 90.9 °F /  32.7 °C 43.0 °F /  6.1 °C 29.61in /  1002.6hPa West 2.0mph /  3.2km/h 11.0mph /  17.7km/h 19% 0.00in /  0mm 722.0 W/m2
16:35 90.9 °F /  32.7 °C 43.0 °F /  6.1 °C 29.61in /  1002.6hPa NW 2.9mph /  4.7km/h 7.0mph /  11.3km/h 19% 0.00in /  0mm 657.0 W/m2
16:40 90.3 °F /  32.4 °C 42.4 °F /  5.8 °C 29.60in /  1002.3hPa West 4.9mph /  7.9km/h 6.0mph /  9.7km/h 19% 0.00in /  0mm 647.0 W/m2
16:45 90.7 °F /  32.6 °C 44.1 °F /  6.7 °C 29.60in /  1002.3hPa SW 4.0mph /  6.4km/h 10.0mph /  16.1km/h 20% 0.00in /  0mm 629.0 W/m2
16:55 89.6 °F /  32 °C 43.2 °F /  6.2 °C 29.60in /  1002.3hPa West 4.9mph /  7.9km/h 6.0mph /  9.7km/h 20% 0.00in /  0mm 587.0 W/m2
17:01 89.8 °F /  32.1 °C 43.3 °F /  6.3 °C 29.60in /  1002.3hPa NW 0.9mph /  1.4km/h 10.0mph /  16.1km/h 20% 0.00in /  0mm 570.0 W/m2
17:06 89.8 °F /  32.1 °C 43.3 °F /  6.3 °C 29.60in /  1002.3hPa SW 2.0mph /  3.2km/h 9.0mph /  14.5km/h 20% 0.00in /  0mm 559.0 W/m2
17:11 89.1 °F /  31.7 °C 42.8 °F /  6 °C 29.60in /  1002.3hPa SW 4.0mph /  6.4km/h 12.0mph /  19.3km/h 20% 0.00in /  0mm 536.0 W/m2
17:16 88.5 °F /  31.4 °C 42.3 °F /  5.7 °C 29.60in /  1002.3hPa West 6.9mph /  11.1km/h 10.0mph /  16.1km/h 20% 0.00in /  0mm 512.0 W/m2
17:21 88.3 °F /  31.3 °C 42.3 °F /  5.7 °C 29.59in /  1001.9hPa West 12.1mph /  19.5km/h 17.0mph /  27.4km/h 20% 0.00in /  0mm 494.0 W/m2
17:26 88.3 °F /  31.3 °C 42.3 °F /  5.7 °C 29.60in /  1002.3hPa West 6.0mph /  9.7km/h 8.0mph /  12.9km/h 20% 0.00in /  0mm 473.0 W/m2
17:31 88.3 °F /  31.3 °C 42.3 °F /  5.7 °C 29.60in /  1002.3hPa West 6.0mph /  9.7km/h 7.0mph /  11.3km/h 20% 0.00in /  0mm 455.0 W/m2
17:37 88.5 °F /  31.4 °C 42.3 °F /  5.7 °C 29.60in /  1002.3hPa WSW 4.0mph /  6.4km/h 11.0mph /  17.7km/h 20% 0.00in /  0mm 429.0 W/m2
17:42 88.0 °F /  31.1 °C 41.9 °F /  5.5 °C 29.60in /  1002.3hPa WSW 4.9mph /  7.9km/h 8.0mph /  12.9km/h 20% 0.00in /  0mm 408.0 W/m2
17:47 87.6 °F /  30.9 °C 41.5 °F /  5.3 °C 29.60in /  1002.3hPa West 2.0mph /  3.2km/h 11.0mph /  17.7km/h 20% 0.00in /  0mm 390.0 W/m2
17:52 87.3 °F /  30.7 °C 39.9 °F /  4.4 °C 29.60in /  1002.3hPa WSW 6.9mph /  11.1km/h 9.0mph /  14.5km/h 19% 0.00in /  0mm 371.0 W/m2
17:57 86.9 °F /  30.5 °C 39.7 °F /  4.3 °C 29.60in /  1002.3hPa SW 2.0mph /  3.2km/h 11.0mph /  17.7km/h 19% 0.00in /  0mm 348.0 W/m2
18:02 86.5 °F /  30.3 °C 39.4 °F /  4.1 °C 29.60in /  1002.3hPa WNW 4.0mph /  6.4km/h 11.0mph /  17.7km/h 19% 0.00in /  0mm 332.0 W/m2
18:07 86.5 °F /  30.3 °C 39.4 °F /  4.1 °C 29.60in /  1002.3hPa SSW 4.0mph /  6.4km/h 12.0mph /  19.3km/h 19% 0.00in /  0mm 311.0 W/m2
18:12 86.2 °F /  30.1 °C 39.0 °F /  3.9 °C 29.60in /  1002.3hPa WNW 4.0mph /  6.4km/h 11.0mph /  17.7km/h 19% 0.00in /  0mm 290.0 W/m2
18:18 85.8 °F /  29.9 °C 38.8 °F /  3.8 °C 29.60in /  1002.3hPa West 8.9mph /  14.3km/h 9.0mph /  14.5km/h 19% 0.00in /  0mm 264.0 W/m2
18:23 85.6 °F /  29.8 °C 38.7 °F /  3.7 °C 29.61in /  1002.6hPa SW 2.9mph /  4.7km/h 11.0mph /  17.7km/h 19% 0.00in /  0mm 241.0 W/m2
18:28 85.5 °F /  29.7 °C 38.5 °F /  3.6 °C 29.61in /  1002.6hPa South 4.9mph /  7.9km/h 13.0mph /  20.9km/h 19% 0.00in /  0mm 213.0 W/m2
18:33 84.9 °F /  29.4 °C 39.4 °F /  4.1 °C 29.61in /  1002.6hPa WSW 8.9mph /  14.3km/h 12.0mph /  19.3km/h 20% 0.00in /  0mm 199.0 W/m2
18:38 84.4 °F /  29.1 °C 39.0 °F /  3.9 °C 29.61in /  1002.6hPa WSW 2.0mph /  3.2km/h 14.0mph /  22.5km/h 20% 0.00in /  0mm 176.0 W/m2
18:43 83.8 °F /  28.8 °C 38.5 °F /  3.6 °C 29.61in /  1002.6hPa West 6.9mph /  11.1km/h 10.0mph /  16.1km/h 20% 0.00in /  0mm 162.0 W/m2
18:48 83.3 °F /  28.5 °C 39.4 °F /  4.1 °C 29.62in /  1002.9hPa WSW 6.9mph /  11.1km/h 15.0mph /  24.1km/h 21% 0.00in /  0mm 135.0 W/m2
18:53 82.2 °F /  27.9 °C 38.5 °F /  3.6 °C 29.62in /  1002.9hPa SW 4.9mph /  7.9km/h 11.0mph /  17.7km/h 21% 0.00in /  0mm 104.0 W/m2
18:59 81.5 °F /  27.5 °C 39.0 °F /  3.9 °C 29.62in /  1002.9hPa WNW 8.9mph /  14.3km/h 14.0mph /  22.5km/h 22% 0.00in /  0mm 44.0 W/m2
19:04 81.0 °F /  27.2 °C 38.5 °F /  3.6 °C 29.62in /  1002.9hPa West 4.9mph /  7.9km/h 7.0mph /  11.3km/h 22% 0.00in /  0mm 28.0 W/m2
19:09 80.6 °F /  27 °C 38.3 °F /  3.5 °C 29.63in /  1003.3hPa SW 4.9mph /  7.9km/h 13.0mph /  20.9km/h 22% 0.00in /  0mm 25.0 W/m2
19:14 80.1 °F /  26.7 °C 37.8 °F /  3.2 °C 29.63in /  1003.3hPa WSW 4.9mph /  7.9km/h 15.0mph /  24.1km/h 22% 0.00in /  0mm 21.0 W/m2
19:19 79.3 °F /  26.3 °C 38.3 °F /  3.5 °C 29.63in /  1003.3hPa WSW 8.9mph /  14.3km/h 9.0mph /  14.5km/h 23% 0.00in /  0mm 16.0 W/m2
19:24 79.0 °F /  26.1 °C 37.9 °F /  3.3 °C 29.63in /  1003.3hPa WSW 8.1mph /  13km/h 14.0mph /  22.5km/h 23% 0.00in /  0mm 14.0 W/m2
19:29 78.6 °F /  25.9 °C 37.8 °F /  3.2 °C 29.64in /  1003.6hPa WSW 6.9mph /  11.1km/h 7.0mph /  11.3km/h 23% 0.00in /  0mm 11.0 W/m2
19:34 78.3 °F /  25.7 °C 37.4 °F /  3 °C 29.64in /  1003.6hPa West 2.0mph /  3.2km/h 9.0mph /  14.5km/h 23% 0.00in /  0mm 9.0 W/m2
19:40 77.9 °F /  25.5 °C 37.0 °F /  2.8 °C 29.64in /  1003.6hPa West 6.0mph /  9.7km/h 9.0mph /  14.5km/h 23% 0.00in /  0mm 5.0 W/m2
19:45 77.5 °F /  25.3 °C 36.9 °F /  2.7 °C 29.65in /  1003.9hPa West 4.9mph /  7.9km/h 7.0mph /  11.3km/h 23% 0.00in /  0mm 0.0 W/m2
19:50 77.2 °F /  25.1 °C 36.5 °F /  2.5 °C 29.65in /  1003.9hPa WSW 4.9mph /  7.9km/h 5.0mph /  8km/h 23% 0.00in /  0mm 0.0 W/m2
19:55 76.8 °F /  24.9 °C 36.1 °F /  2.3 °C 29.65in /  1003.9hPa West 4.9mph /  7.9km/h 7.0mph /  11.3km/h 23% 0.00in /  0mm 0.0 W/m2
20:00 76.5 °F /  24.7 °C 36.0 °F /  2.2 °C 29.65in /  1003.9hPa West 6.0mph /  9.7km/h 8.0mph /  12.9km/h 23% 0.00in /  0mm 0.0 W/m2
20:05 76.3 °F /  24.6 °C 35.8 °F /  2.1 °C 29.66in /  1004.3hPa WNW 2.9mph /  4.7km/h 7.0mph /  11.3km/h 23% 0.00in /  0mm 0.0 W/m2
20:10 75.9 °F /  24.4 °C 35.4 °F /  1.9 °C 29.66in /  1004.3hPa SSW 6.0mph /  9.7km/h 7.0mph /  11.3km/h 23% 0.00in /  0mm 0.0 W/m2
20:15 75.7 °F /  24.3 °C 36.3 °F /  2.4 °C 29.66in /  1004.3hPa SW 2.9mph /  4.7km/h 6.0mph /  9.7km/h 24% 0.00in /  0mm 0.0 W/m2
20:21 75.6 °F /  24.2 °C 36.3 °F /  2.4 °C 29.66in /  1004.3hPa WSW 2.0mph /  3.2km/h 3.0mph /  4.8km/h 24% 0.00in /  0mm 0.0 W/m2
20:26 75.2 °F /  24 °C 36.0 °F /  2.2 °C 29.66in /  1004.3hPa SW 2.0mph /  3.2km/h 6.0mph /  9.7km/h 24% 0.00in /  0mm 0.0 W/m2
20:31 75.0 °F /  23.9 °C 35.8 °F /  2.1 °C 29.66in /  1004.3hPa WSW 2.9mph /  4.7km/h 3.0mph /  4.8km/h 24% 0.00in /  0mm 0.0 W/m2
20:37 74.7 °F /  23.7 °C 35.4 °F /  1.9 °C 29.66in /  1004.3hPa SSW 0.9mph /  1.4km/h 6.0mph /  9.7km/h 24% 0.00in /  0mm 0.0 W/m2
20:42 74.5 °F /  23.6 °C 35.2 °F /  1.8 °C 29.66in /  1004.3hPa WSW 2.9mph /  4.7km/h 5.0mph /  8km/h 24% 0.00in /  0mm 0.0 W/m2
20:47 74.1 °F /  23.4 °C 34.0 °F /  1.1 °C 29.67in /  1004.6hPa SW 8.1mph /  13km/h 8.1mph /  13km/h 23% 0.00in /  0mm 0.0 W/m2
20:53 73.8 °F /  23.2 °C 33.6 °F /  0.9 °C 29.67in /  1004.6hPa West 2.9mph /  4.7km/h 8.0mph /  12.9km/h 23% 0.00in /  0mm 0.0 W/m2
20:58 73.6 °F /  23.1 °C 33.4 °F /  0.8 °C 29.67in /  1004.6hPa West 4.0mph /  6.4km/h 7.0mph /  11.3km/h 23% 0.00in /  0mm 0.0 W/m2
21:03 73.2 °F /  22.9 °C 33.3 °F /  0.7 °C 29.67in /  1004.6hPa WSW 4.0mph /  6.4km/h 10.0mph /  16.1km/h 23% 0.00in /  0mm 0.0 W/m2
21:08 73.0 °F /  22.8 °C 33.1 °F /  0.6 °C 29.67in /  1004.6hPa SW 4.9mph /  7.9km/h 10.0mph /  16.1km/h 23% 0.00in /  0mm 0.0 W/m2
21:13 72.9 °F /  22.7 °C 32.9 °F /  0.5 °C 29.67in /  1004.6hPa West 8.1mph /  13km/h 10.0mph /  16.1km/h 23% 0.00in /  0mm 0.0 W/m2
21:19 72.9 °F /  22.7 °C 32.9 °F /  0.5 °C 29.67in /  1004.6hPa West 2.0mph /  3.2km/h 12.0mph /  19.3km/h 23% 0.00in /  0mm 0.0 W/m2
21:24 72.7 °F /  22.6 °C 32.7 °F /  0.4 °C 29.67in /  1004.6hPa SW 4.0mph /  6.4km/h 14.0mph /  22.5km/h 23% 0.00in /  0mm 0.0 W/m2
21:29 72.7 °F /  22.6 °C 32.7 °F /  0.4 °C 29.67in /  1004.6hPa WSW 2.9mph /  4.7km/h 7.0mph /  11.3km/h 23% 0.00in /  0mm 0.0 W/m2
21:35 72.3 °F /  22.4 °C 32.4 °F /  0.2 °C 29.67in /  1004.6hPa WSW 4.0mph /  6.4km/h 7.0mph /  11.3km/h 23% 0.00in /  0mm 0.0 W/m2
21:40 72.3 °F /  22.4 °C 32.4 °F /  0.2 °C 29.68in /  1005hPa SW 0.9mph /  1.4km/h 14.0mph /  22.5km/h 23% 0.00in /  0mm 0.0 W/m2
21:45 72.1 °F /  22.3 °C 32.4 °F /  0.2 °C 29.68in /  1005hPa West 2.0mph /  3.2km/h 6.0mph /  9.7km/h 23% 0.00in /  0mm 0.0 W/m2
21:50 72.0 °F /  22.2 °C 33.3 °F /  0.7 °C 29.68in /  1005hPa West 8.1mph /  13km/h 11.0mph /  17.7km/h 24% 0.00in /  0mm 0.0 W/m2
21:55 71.8 °F /  22.1 °C 33.1 °F /  0.6 °C 29.68in /  1005hPa SSW 0.9mph /  1.4km/h 8.0mph /  12.9km/h 24% 0.00in /  0mm 0.0 W/m2
22:00 71.6 °F /  22 °C 32.9 °F /  0.5 °C 29.69in /  1005.3hPa SE 4.9mph /  7.9km/h 8.0mph /  12.9km/h 24% 0.00in /  0mm 0.0 W/m2
22:05 71.4 °F /  21.9 °C 33.8 °F /  1 °C 29.69in /  1005.3hPa West 0.9mph /  1.4km/h 8.0mph /  12.9km/h 25% 0.00in /  0mm 0.0 W/m2
22:10 71.2 °F /  21.8 °C 33.6 °F /  0.9 °C 29.69in /  1005.3hPa West 4.9mph /  7.9km/h 9.0mph /  14.5km/h 25% 0.00in /  0mm 0.0 W/m2
22:15 71.2 °F /  21.8 °C 33.6 °F /  0.9 °C 29.69in /  1005.3hPa West 4.0mph /  6.4km/h 9.0mph /  14.5km/h 25% 0.00in /  0mm 0.0 W/m2
22:20 71.2 °F /  21.8 °C 33.6 °F /  0.9 °C 29.69in /  1005.3hPa South 4.0mph /  6.4km/h 4.0mph /  6.4km/h 25% 0.00in /  0mm 0.0 W/m2
22:26 71.1 °F /  21.7 °C 33.4 °F /  0.8 °C 29.70in /  1005.6hPa SSW 2.0mph /  3.2km/h 8.0mph /  12.9km/h 25% 0.00in /  0mm 0.0 W/m2
22:31 71.1 °F /  21.7 °C 33.4 °F /  0.8 °C 29.70in /  1005.6hPa SW 0.9mph /  1.4km/h 9.0mph /  14.5km/h 25% 0.00in /  0mm 0.0 W/m2
22:36 70.9 °F /  21.6 °C 33.3 °F /  0.7 °C 29.70in /  1005.6hPa South 2.9mph /  4.7km/h 6.0mph /  9.7km/h 25% 0.00in /  0mm 0.0 W/m2
22:41 70.9 °F /  21.6 °C 34.3 °F /  1.3 °C 29.70in /  1005.6hPa Calm   2.0mph /  3.2km/h 26% 0.00in /  0mm 0.0 W/m2
22:47 70.7 °F /  21.5 °C 34.2 °F /  1.2 °C 29.70in /  1005.6hPa South 0.9mph /  1.4km/h 3.0mph /  4.8km/h 26% 0.00in /  0mm 0.0 W/m2
22:52 70.5 °F /  21.4 °C 34.0 °F /  1.1 °C 29.70in /  1005.6hPa SW 2.0mph /  3.2km/h 3.0mph /  4.8km/h 26% 0.00in /  0mm 0.0 W/m2
22:57 70.5 °F /  21.4 °C 34.0 °F /  1.1 °C 29.70in /  1005.6hPa WSW 2.0mph /  3.2km/h 3.0mph /  4.8km/h 26% 0.00in /  0mm 0.0 W/m2
23:02 70.3 °F /  21.3 °C 33.8 °F /  1 °C 29.71in /  1006hPa Calm   2.0mph /  3.2km/h 26% 0.00in /  0mm 0.0 W/m2
23:07 70.3 °F /  21.3 °C 33.8 °F /  1 °C 29.71in /  1006hPa Calm   1.0mph /  1.6km/h 26% 0.00in /  0mm 0.0 W/m2
23:12 70.2 °F /  21.2 °C 34.7 °F /  1.5 °C 29.71in /  1006hPa Calm     27% 0.00in /  0mm 0.0 W/m2
23:17 70.0 °F /  21.1 °C 34.5 °F /  1.4 °C 29.71in /  1006hPa Calm     27% 0.00in /  0mm 0.0 W/m2
23:22 69.8 °F /  21 °C 34.3 °F /  1.3 °C 29.71in /  1006hPa Calm   1.0mph /  1.6km/h 27% 0.00in /  0mm 0.0 W/m2
23:28 69.6 °F /  20.9 °C 34.2 °F /  1.2 °C 29.71in /  1006hPa NNW 0.9mph /  1.4km/h 2.0mph /  3.2km/h 27% 0.00in /  0mm 0.0 W/m2
23:33 69.6 °F /  20.9 °C 34.2 °F /  1.2 °C 29.71in /  1006hPa Calm   1.0mph /  1.6km/h 27% 0.00in /  0mm 0.0 W/m2
23:38 69.4 °F /  20.8 °C 34.0 °F /  1.1 °C 29.71in /  1006hPa Calm   2.0mph /  3.2km/h 27% 0.00in /  0mm 0.0 W/m2
23:43 69.4 °F /  20.8 °C 33.1 °F /  0.6 °C 29.71in /  1006hPa Calm   1.0mph /  1.6km/h 26% 0.00in /  0mm 0.0 W/m2
23:48 69.6 °F /  20.9 °C 33.3 °F /  0.7 °C 29.71in /  1006hPa Calm   1.0mph /  1.6km/h 26% 0.00in /  0mm 0.0 W/m2
23:53 69.6 °F /  20.9 °C 34.2 °F /  1.2 °C 29.72in /  1006.3hPa Calm   3.0mph /  4.8km/h 27% 0.00in /  0mm 0.0 W/m2
23:58 69.4 °F /  20.8 °C 34.0 °F /  1.1 °C 29.72in /  1006.3hPa NNW 2.0mph /  3.2km/h 2.0mph /  3.2km/h 27% 0.00in /  0mm 0.0 W/m2
Olympia, Windhoek, Namibia
Compliments of Weather Underground - 3.25 mb